createdAt,value
2017-12-05T00:02:01.718Z,10.20
2017-12-05T00:04:29.338Z,19.27
2017-12-05T00:06:56.915Z,9.87
2017-12-05T00:09:24.983Z,6.10
2017-12-05T00:11:52.645Z,8.23
2017-12-05T00:14:20.215Z,8.80
2017-12-05T00:16:48.060Z,7.13
2017-12-05T00:19:15.672Z,11.43
2017-12-05T00:21:43.225Z,8.80
2017-12-05T00:24:10.784Z,8.87
2017-12-05T00:26:38.416Z,7.83
2017-12-05T00:29:06.327Z,9.60
2017-12-05T00:31:33.966Z,9.30
2017-12-05T00:34:01.639Z,8.57
2017-12-05T00:36:29.214Z,9.20
2017-12-05T00:38:56.772Z,9.10
2017-12-05T00:41:24.377Z,10.20
2017-12-05T00:43:51.914Z,9.80
2017-12-05T00:46:19.504Z,9.40
2017-12-05T00:48:47.097Z,7.97
2017-12-05T00:51:14.788Z,8.23
2017-12-05T00:53:42.340Z,8.87
2017-12-05T00:56:09.917Z,10.63
2017-12-05T00:58:37.491Z,8.13
2017-12-05T01:01:05.081Z,9.33
2017-12-05T01:03:33.029Z,8.73
2017-12-05T01:06:00.611Z,15.50
2017-12-05T01:08:28.181Z,8.43
2017-12-05T01:10:55.790Z,8.00
2017-12-05T01:13:23.882Z,10.47
2017-12-05T01:15:51.477Z,13.20
2017-12-05T01:18:19.055Z,10.30
2017-12-05T01:20:46.607Z,12.00
2017-12-05T01:23:14.279Z,7.97
2017-12-05T01:25:42.098Z,8.50
2017-12-05T01:28:09.650Z,11.70
2017-12-05T01:30:37.301Z,7.43
2017-12-05T01:33:04.969Z,8.43
2017-12-05T01:35:32.600Z,9.07
2017-12-05T01:38:00.168Z,9.67
2017-12-05T01:40:27.750Z,8.53
2017-12-05T01:42:55.312Z,12.40
2017-12-05T01:45:23.014Z,10.13
2017-12-05T01:47:50.667Z,8.07
2017-12-05T01:50:18.233Z,7.23
2017-12-05T01:52:45.816Z,7.30
2017-12-05T01:55:13.540Z,9.10
2017-12-05T01:57:41.192Z,7.97
2017-12-05T02:00:09.028Z,7.20
2017-12-05T02:02:36.611Z,7.53
2017-12-05T02:05:04.318Z,5.30
2017-12-05T02:07:31.999Z,7.50
2017-12-05T02:09:59.580Z,4.37
2017-12-05T02:12:27.197Z,6.03
2017-12-05T02:14:54.887Z,5.57
2017-12-05T02:17:23.133Z,5.10
2017-12-05T02:19:51.410Z,5.77
2017-12-05T02:22:19.577Z,4.90
2017-12-05T02:24:47.241Z,5.80
2017-12-05T02:27:15.597Z,5.37
2017-12-05T02:29:43.362Z,8.77
2017-12-05T02:32:10.986Z,4.93
2017-12-05T02:34:38.573Z,4.80
2017-12-05T02:37:06.396Z,5.50
2017-12-05T02:39:33.984Z,6.00
2017-12-05T02:42:01.688Z,6.87
2017-12-05T02:44:29.327Z,7.20
2017-12-05T02:46:56.930Z,4.70
2017-12-05T02:49:24.802Z,4.73
2017-12-05T02:51:52.429Z,8.70
2017-12-05T02:54:20.015Z,4.93
2017-12-05T02:56:47.573Z,4.60
2017-12-05T02:59:15.247Z,7.47
2017-12-05T03:01:42.850Z,11.00
2017-12-05T03:04:10.449Z,23.90
2017-12-05T03:06:39.040Z,7.40
2017-12-05T03:09:09.859Z,5.30
2017-12-05T03:11:37.975Z,5.00
2017-12-05T03:14:08.206Z,4.40
2017-12-05T03:16:37.675Z,6.77
2017-12-05T03:19:08.601Z,8.80
2017-12-05T03:21:41.145Z,4.33
2017-12-05T03:24:09.102Z,7.03
2017-12-05T03:26:38.667Z,5.10
2017-12-05T03:29:06.698Z,6.43
2017-12-05T03:31:34.264Z,6.10
2017-12-05T03:34:01.813Z,8.40
2017-12-05T03:36:30.244Z,5.97
2017-12-05T03:38:57.817Z,5.70
2017-12-05T03:41:25.412Z,5.53
2017-12-05T03:43:54.619Z,5.53
2017-12-05T03:46:22.712Z,5.77
2017-12-05T03:48:50.647Z,6.27
2017-12-05T03:51:18.200Z,6.10
2017-12-05T03:53:45.767Z,7.20
2017-12-05T03:56:13.356Z,6.27
2017-12-05T03:58:40.960Z,5.80
2017-12-05T04:01:08.537Z,7.70
2017-12-05T04:03:36.097Z,7.33
2017-12-05T04:06:03.664Z,7.90
2017-12-05T04:08:31.265Z,6.47
2017-12-05T04:10:58.857Z,7.30
2017-12-05T04:13:27.022Z,5.50
2017-12-05T04:15:54.624Z,6.10
2017-12-05T04:18:22.247Z,4.60
2017-12-05T04:20:50.006Z,4.93
2017-12-05T04:23:17.568Z,4.67
2017-12-05T04:25:45.137Z,5.53
2017-12-05T04:28:12.711Z,4.63
2017-12-05T04:30:40.706Z,5.73
2017-12-05T04:33:08.825Z,5.67
2017-12-05T04:35:36.487Z,5.53
2017-12-05T04:38:04.177Z,5.40
2017-12-05T04:40:31.882Z,5.80
2017-12-05T04:42:59.581Z,6.43
2017-12-05T04:45:27.311Z,4.87
2017-12-05T04:47:54.963Z,6.00
2017-12-05T04:50:22.757Z,5.13
2017-12-05T04:52:50.390Z,5.00
2017-12-05T04:55:18.586Z,5.50
2017-12-05T04:57:46.401Z,5.87
2017-12-05T05:00:14.108Z,5.13
2017-12-05T05:02:42.211Z,4.50
2017-12-05T05:05:11.107Z,8.83
2017-12-05T05:07:38.853Z,5.10
2017-12-05T05:10:06.557Z,5.27
2017-12-05T05:12:34.190Z,5.57
2017-12-05T05:15:01.816Z,8.47
2017-12-05T05:17:29.414Z,9.27
2017-12-05T05:19:56.985Z,7.40
2017-12-05T05:22:25.332Z,6.63
2017-12-05T05:24:52.914Z,11.93
2017-12-05T05:27:20.485Z,5.10
2017-12-05T05:29:48.369Z,5.17
2017-12-05T05:32:15.921Z,5.90
2017-12-05T05:34:43.520Z,5.23
2017-12-05T05:37:11.918Z,5.87
2017-12-05T05:39:39.491Z,6.23
2017-12-05T05:42:07.066Z,6.90
2017-12-05T05:44:35.141Z,6.00
2017-12-05T05:47:02.787Z,5.40
2017-12-05T05:49:30.575Z,5.77
2017-12-05T05:51:58.184Z,5.63
2017-12-05T05:54:25.750Z,8.00
2017-12-05T05:56:53.324Z,12.03
2017-12-05T05:59:20.979Z,5.90
2017-12-05T06:01:48.550Z,5.70
2017-12-05T06:04:16.112Z,4.67
2017-12-05T06:06:43.690Z,6.50
2017-12-05T06:09:12.052Z,5.20
2017-12-05T06:11:39.770Z,4.97
2017-12-05T06:14:07.374Z,5.03
2017-12-05T06:16:34.965Z,4.70
2017-12-05T06:19:02.602Z,4.50
2017-12-05T06:21:30.696Z,10.30
2017-12-05T06:23:58.272Z,4.30
2017-12-05T06:26:25.964Z,4.47
2017-12-05T06:28:53.562Z,5.33
2017-12-05T06:31:21.118Z,4.97
2017-12-05T06:33:48.753Z,6.00
2017-12-05T06:36:16.527Z,3.60
2017-12-05T06:38:44.087Z,5.13
2017-12-05T06:41:11.949Z,7.03
2017-12-05T06:43:39.504Z,4.80
2017-12-05T06:46:07.085Z,6.80
2017-12-05T06:48:34.662Z,5.13
2017-12-05T06:51:02.513Z,3.93
2017-12-05T06:53:30.183Z,9.53
2017-12-05T06:55:57.861Z,5.40
2017-12-05T06:58:25.609Z,4.10
2017-12-05T07:00:53.338Z,4.30
2017-12-05T07:03:21.170Z,4.53
2017-12-05T07:05:50.195Z,3.90
2017-12-05T07:08:17.770Z,4.20
2017-12-05T07:10:46.554Z,4.07
2017-12-05T07:13:16.804Z,4.00
2017-12-05T07:15:44.509Z,2.67
2017-12-05T07:18:12.146Z,3.13
2017-12-05T07:20:40.066Z,8.00
2017-12-05T07:23:08.425Z,4.20
2017-12-05T07:25:36.154Z,8.00
2017-12-05T07:28:04.751Z,4.27
2017-12-05T07:30:32.547Z,4.17
2017-12-05T07:33:00.785Z,4.27
2017-12-05T07:35:28.582Z,4.50
2017-12-05T07:37:59.853Z,4.20
2017-12-05T07:40:27.727Z,8.53
2017-12-05T07:42:55.340Z,5.40
2017-12-05T07:45:23.013Z,4.90
2017-12-05T07:47:51.380Z,4.13
2017-12-05T07:50:19.150Z,4.43
2017-12-05T07:52:46.720Z,5.93
2017-12-05T07:55:14.346Z,3.57
2017-12-05T07:57:42.514Z,4.13
2017-12-05T08:00:10.510Z,6.27
2017-12-05T08:02:38.192Z,4.10
2017-12-05T08:05:05.819Z,4.90
2017-12-05T08:07:34.148Z,4.03
2017-12-05T08:10:01.847Z,9.53
2017-12-05T08:12:29.526Z,4.27
2017-12-05T08:14:57.222Z,4.07
2017-12-05T08:17:24.923Z,6.33
2017-12-05T08:19:52.574Z,4.07
2017-12-05T08:22:20.434Z,6.07
2017-12-05T08:24:48.101Z,6.10
2017-12-05T08:30:05.730Z,7.47
2017-12-05T08:32:33.334Z,6.77
2017-12-05T08:35:00.979Z,7.97
2017-12-05T08:37:28.704Z,5.23
2017-12-05T08:39:56.329Z,7.63
2017-12-05T08:42:24.006Z,7.30
2017-12-05T08:44:51.552Z,7.67
2017-12-05T08:47:19.141Z,9.57
2017-12-05T08:49:46.763Z,8.60
2017-12-05T08:52:14.444Z,6.90
2017-12-05T08:54:42.069Z,6.97
2017-12-05T08:57:10.222Z,8.27
2017-12-05T08:59:37.851Z,8.93
2017-12-05T09:02:05.433Z,7.13
2017-12-05T09:04:33.043Z,5.43
2017-12-05T09:07:00.676Z,4.90
2017-12-05T09:09:28.267Z,6.70
2017-12-05T09:11:55.910Z,6.33
2017-12-05T09:14:23.551Z,12.33
2017-12-05T09:16:51.295Z,6.20
2017-12-05T09:19:18.991Z,5.57
2017-12-05T09:21:46.677Z,5.77
2017-12-05T09:24:33.407Z,10.73
2017-12-05T09:31:55.096Z,7.27
2017-12-05T09:34:22.768Z,9.10
2017-12-05T09:36:52.811Z,4.70
2017-12-05T09:39:20.455Z,7.23
2017-12-05T09:42:14.734Z,4.43
2017-12-05T09:47:32.769Z,3.60
2017-12-05T09:50:07.772Z,3.57
2017-12-05T09:52:36.584Z,5.00
2017-12-05T09:55:04.345Z,4.97
2017-12-05T09:57:35.090Z,4.70
2017-12-05T10:00:02.785Z,4.50
2017-12-05T10:02:30.756Z,4.40
2017-12-05T10:05:10.043Z,2.97
2017-12-05T10:07:38.140Z,3.10
2017-12-05T10:10:05.727Z,4.20
2017-12-05T10:12:33.410Z,2.37
2017-12-05T10:15:01.047Z,3.20
2017-12-05T10:17:28.939Z,2.83
2017-12-05T10:19:56.543Z,3.63
2017-12-05T10:22:24.156Z,2.43
2017-12-05T10:24:51.887Z,2.03
2017-12-05T10:27:19.575Z,1.90
2017-12-05T10:29:47.465Z,2.27
2017-12-05T10:32:18.894Z,2.00
2017-12-05T10:34:46.839Z,5.70
2017-12-05T10:37:14.486Z,2.20
2017-12-05T10:39:42.366Z,2.37
2017-12-05T10:42:10.111Z,2.30
2017-12-05T10:44:37.887Z,1.90
2017-12-05T10:47:05.589Z,2.07
2017-12-05T10:52:12.945Z,1.90
2017-12-05T10:54:41.492Z,2.10
2017-12-05T10:57:12.920Z,2.43
2017-12-05T10:59:40.609Z,2.53
2017-12-05T11:02:10.535Z,2.13
2017-12-05T11:04:38.236Z,1.80
2017-12-05T11:07:06.086Z,2.50
2017-12-05T11:09:33.781Z,2.57
2017-12-05T11:12:01.481Z,2.50
2017-12-05T11:14:32.007Z,3.53
2017-12-05T11:16:59.807Z,2.97
2017-12-05T11:19:28.179Z,2.50
2017-12-05T11:21:56.072Z,2.73
2017-12-05T11:24:27.552Z,2.10
2017-12-05T11:26:55.273Z,2.33
2017-12-05T11:29:24.736Z,2.40
2017-12-05T11:31:52.476Z,1.90
2017-12-05T11:34:20.196Z,2.90
2017-12-05T11:36:57.381Z,2.80
2017-12-05T11:39:25.092Z,2.83
2017-12-05T11:41:53.672Z,3.53
2017-12-05T11:44:21.364Z,3.33
2017-12-05T11:46:52.077Z,2.83
2017-12-05T11:49:19.846Z,2.80
2017-12-05T11:51:47.686Z,4.20
2017-12-05T11:54:15.390Z,2.67
2017-12-05T11:56:43.270Z,7.80
2017-12-05T11:59:10.903Z,6.03
2017-12-05T12:01:38.628Z,3.27
2017-12-05T12:04:06.208Z,3.57
2017-12-05T12:06:33.819Z,4.50
2017-12-05T12:09:01.490Z,4.47
2017-12-05T12:11:29.073Z,4.30
2017-12-05T12:13:56.724Z,3.50
2017-12-05T12:16:24.881Z,3.50
2017-12-05T12:18:52.752Z,6.00
2017-12-05T12:21:20.357Z,6.47
2017-12-05T12:23:47.966Z,5.47
2017-12-05T12:26:16.281Z,6.90
2017-12-05T12:28:43.904Z,3.60
2017-12-05T12:31:11.660Z,6.33
2017-12-05T12:33:39.458Z,4.53
2017-12-05T12:36:07.677Z,9.93
2017-12-05T12:38:35.315Z,6.40
2017-12-05T12:41:03.046Z,9.13
2017-12-05T12:43:30.620Z,5.47
2017-12-05T12:45:58.428Z,4.70
2017-12-05T12:48:26.052Z,3.93
2017-12-05T12:50:53.615Z,4.20
2017-12-05T12:53:21.214Z,4.20
2017-12-05T12:55:49.009Z,4.10
2017-12-05T12:58:16.646Z,4.70
2017-12-05T13:00:44.283Z,7.37
2017-12-05T13:03:11.918Z,4.60
2017-12-05T13:05:39.508Z,4.57
2017-12-05T13:08:07.102Z,4.17
2017-12-05T13:10:34.955Z,4.77
2017-12-05T13:13:02.631Z,3.93
2017-12-05T13:15:30.236Z,4.90
2017-12-05T13:17:57.829Z,5.33
2017-12-05T13:20:25.471Z,5.57
2017-12-05T13:25:43.145Z,7.97
2017-12-05T13:28:10.705Z,5.17
2017-12-05T13:30:38.273Z,5.03
2017-12-05T13:33:05.960Z,6.07
2017-12-05T13:35:33.543Z,6.30
2017-12-05T13:38:01.185Z,5.27
2017-12-05T13:40:29.001Z,7.10
2017-12-05T13:42:56.685Z,6.13
2017-12-05T13:45:24.362Z,7.00
2017-12-05T13:47:51.998Z,5.60
2017-12-05T13:50:19.617Z,6.30
2017-12-05T13:52:47.166Z,7.17
2017-12-05T13:55:14.747Z,5.57
2017-12-05T13:57:42.368Z,6.00
2017-12-05T14:00:10.046Z,6.10
2017-12-05T14:02:37.667Z,6.23
2017-12-05T14:05:05.259Z,8.10
2017-12-05T14:07:32.912Z,12.13
2017-12-05T14:10:00.546Z,9.63
2017-12-05T14:12:28.641Z,8.33
2017-12-05T14:14:56.243Z,7.23
2017-12-05T14:17:23.900Z,7.93
2017-12-05T14:19:51.466Z,9.20
2017-12-05T14:22:19.146Z,13.57
2017-12-05T14:24:46.754Z,11.40
2017-12-05T14:27:14.369Z,11.43
2017-12-05T14:29:41.950Z,13.80
2017-12-05T14:32:09.546Z,11.03
2017-12-05T14:34:37.165Z,9.80
2017-12-05T14:37:04.829Z,9.47
2017-12-05T14:39:32.449Z,10.83
2017-12-05T14:42:00.323Z,8.33
2017-12-05T14:44:27.953Z,12.77
2017-12-05T14:46:55.588Z,10.93
2017-12-05T14:49:23.150Z,10.53
2017-12-05T14:51:50.777Z,12.60
2017-12-05T14:54:18.385Z,15.53
2017-12-05T14:56:47.810Z,13.17
2017-12-05T14:59:16.664Z,10.63
2017-12-05T15:01:44.284Z,12.60
2017-12-05T15:04:12.308Z,9.80
2017-12-05T15:06:39.949Z,10.43
2017-12-05T15:09:07.678Z,10.67
2017-12-05T15:11:35.260Z,10.00
2017-12-05T15:14:02.970Z,11.93
2017-12-05T15:16:30.617Z,12.83
2017-12-05T15:18:58.204Z,14.00
2017-12-05T15:21:25.836Z,11.43
2017-12-05T15:23:53.401Z,10.43
2017-12-05T15:26:21.033Z,16.83
2017-12-05T15:28:48.630Z,12.33
2017-12-05T15:31:16.323Z,12.23
2017-12-05T15:33:43.912Z,13.30
2017-12-05T15:36:13.377Z,14.70
2017-12-05T15:38:41.662Z,14.00
2017-12-05T15:41:10.240Z,17.10
2017-12-05T15:43:37.958Z,16.07
2017-12-05T15:46:05.579Z,14.30
2017-12-05T15:48:33.495Z,12.87
2017-12-05T15:51:01.216Z,15.00
2017-12-05T15:53:28.915Z,19.30
2017-12-05T15:55:56.529Z,17.57
2017-12-05T15:58:24.237Z,16.40
2017-12-05T16:00:51.948Z,19.33
2017-12-05T16:03:19.524Z,20.03
2017-12-05T16:05:47.195Z,15.30
2017-12-05T16:08:15.088Z,9.93
2017-12-05T16:10:42.672Z,15.03
2017-12-05T16:13:10.333Z,11.20
2017-12-05T16:15:37.970Z,14.80
2017-12-05T16:18:05.683Z,15.40
2017-12-05T16:20:33.330Z,13.07
2017-12-05T16:23:00.934Z,12.30
2017-12-05T16:25:28.517Z,16.80
2017-12-05T16:27:56.488Z,17.13
2017-12-05T16:30:24.185Z,15.40
2017-12-05T16:32:51.810Z,20.13
2017-12-05T16:35:19.381Z,14.43
2017-12-05T16:37:46.972Z,17.13
2017-12-05T16:40:14.608Z,14.57
2017-12-05T16:42:42.193Z,14.27
2017-12-05T16:45:10.006Z,16.67
2017-12-05T16:47:37.597Z,16.80
2017-12-05T16:50:05.203Z,16.70
2017-12-05T16:52:32.868Z,16.67
2017-12-05T16:55:00.487Z,24.40
2017-12-05T16:57:28.337Z,15.77
2017-12-05T16:59:55.962Z,25.70
2017-12-05T17:02:23.549Z,18.50
2017-12-05T17:04:51.123Z,20.77
2017-12-05T17:07:18.858Z,18.93
2017-12-05T17:09:46.436Z,21.00
2017-12-05T17:12:14.200Z,19.73
2017-12-05T17:14:41.811Z,18.20
2017-12-05T17:17:09.436Z,16.77
2017-12-05T17:19:37.137Z,15.87
2017-12-05T17:22:04.782Z,18.07
2017-12-05T17:24:32.396Z,19.20
2017-12-05T17:27:00.005Z,15.17
2017-12-05T17:29:27.711Z,18.70
2017-12-05T17:31:55.285Z,16.03
2017-12-05T17:34:23.485Z,15.43
2017-12-05T17:36:51.133Z,16.13
2017-12-05T17:39:18.738Z,18.23
2017-12-05T17:41:46.361Z,19.00
2017-12-05T17:44:14.039Z,16.70
2017-12-05T17:46:41.624Z,16.13
2017-12-05T17:49:09.997Z,22.70
2017-12-05T17:51:37.692Z,16.03
2017-12-05T17:54:05.495Z,19.87
2017-12-05T17:56:33.110Z,17.10
2017-12-05T17:59:00.695Z,17.53
2017-12-05T18:01:28.323Z,20.90
2017-12-05T18:03:55.888Z,14.73
2017-12-05T18:06:23.458Z,14.53
2017-12-05T18:08:51.103Z,15.83
2017-12-05T18:11:18.710Z,16.50
2017-12-05T18:13:46.305Z,15.83
2017-12-05T18:16:13.972Z,17.50
2017-12-05T18:18:41.986Z,14.67
2017-12-05T18:23:41.418Z,19.33
2017-12-05T18:26:09.549Z,9.77
2017-12-05T18:28:37.097Z,11.73
2017-12-05T18:31:04.694Z,12.40
2017-12-05T18:33:32.294Z,13.70
2017-12-05T18:36:00.234Z,8.07
2017-12-05T18:38:27.802Z,9.77
2017-12-05T18:40:55.442Z,13.07
2017-12-05T18:43:23.025Z,9.60
2017-12-05T18:45:50.616Z,9.80
2017-12-05T18:48:18.448Z,9.80
2017-12-05T18:50:46.654Z,8.97
2017-12-05T18:53:14.222Z,10.03
2017-12-05T18:55:41.817Z,13.13
2017-12-05T18:58:09.406Z,11.13
2017-12-05T19:00:37.001Z,10.70
2017-12-05T19:03:04.586Z,13.23
2017-12-05T19:05:32.256Z,11.47
2017-12-05T19:07:59.884Z,11.30
2017-12-05T19:10:27.450Z,15.97
2017-12-05T19:12:55.121Z,11.83
2017-12-05T19:15:22.858Z,11.27
2017-12-05T19:17:50.419Z,12.43
2017-12-05T19:20:18.084Z,10.60
2017-12-05T19:22:46.555Z,10.83
2017-12-05T19:25:14.339Z,13.67
2017-12-05T19:27:41.918Z,10.40
2017-12-05T19:30:09.486Z,13.70
2017-12-05T19:32:37.368Z,12.07
2017-12-05T19:35:05.632Z,13.17
2017-12-05T19:37:33.242Z,13.40
2017-12-05T19:40:00.858Z,14.93
2017-12-05T19:42:28.499Z,18.77
2017-12-05T19:44:56.086Z,15.77
2017-12-05T19:47:23.769Z,17.33
2017-12-05T19:49:51.363Z,18.00
2017-12-05T19:52:18.979Z,15.40
2017-12-05T19:54:46.599Z,14.63
2017-12-05T19:57:15.511Z,14.63
2017-12-05T19:59:43.225Z,18.70
2017-12-05T20:02:10.837Z,14.53
2017-12-05T20:04:38.434Z,14.50
2017-12-05T20:07:06.062Z,15.20
2017-12-05T20:09:33.740Z,17.20
2017-12-05T20:12:01.384Z,15.03
2017-12-05T20:14:28.944Z,17.43
2017-12-05T20:16:56.528Z,11.57
2017-12-05T20:19:24.107Z,9.90
2017-12-05T20:21:51.667Z,11.50
2017-12-05T20:24:19.324Z,13.77
2017-12-05T20:26:46.901Z,15.80
2017-12-05T20:29:14.615Z,14.20
2017-12-05T20:31:43.193Z,15.50
2017-12-05T20:34:10.908Z,15.33
2017-12-05T20:36:38.490Z,17.57
2017-12-05T20:39:06.124Z,14.40
2017-12-05T20:41:33.686Z,16.17
2017-12-05T20:44:01.282Z,15.37
2017-12-05T20:46:28.873Z,15.03
2017-12-05T20:48:56.459Z,18.50
2017-12-05T20:51:24.150Z,14.00
2017-12-05T20:53:51.787Z,16.47
2017-12-05T20:56:19.358Z,14.07
2017-12-05T20:58:46.942Z,17.07
2017-12-05T21:01:14.572Z,15.13
2017-12-05T21:03:42.134Z,12.17
2017-12-05T21:06:09.723Z,15.80
2017-12-05T21:08:37.377Z,22.43
2017-12-05T21:11:05.146Z,15.43
2017-12-05T21:13:32.730Z,18.30
2017-12-05T21:16:00.321Z,16.40
2017-12-05T21:18:27.902Z,14.87
2017-12-05T21:20:55.469Z,14.60
2017-12-05T21:23:23.071Z,15.53
2017-12-05T21:25:51.285Z,19.87
2017-12-05T21:28:18.981Z,14.10
2017-12-05T21:30:46.586Z,14.80
2017-12-05T21:33:14.146Z,14.63
2017-12-05T21:35:41.703Z,13.70
2017-12-05T21:38:09.378Z,12.63
2017-12-05T21:40:36.918Z,14.33
2017-12-05T21:43:04.492Z,19.53
2017-12-05T21:45:32.116Z,16.73
2017-12-05T21:47:59.665Z,14.60
2017-12-05T21:50:27.206Z,17.20
2017-12-05T21:52:54.773Z,18.30
2017-12-05T21:55:22.330Z,17.80
2017-12-05T21:57:49.941Z,20.77
2017-12-05T22:00:17.541Z,18.90
2017-12-05T22:02:45.102Z,15.90
2017-12-05T22:05:12.875Z,16.30
2017-12-05T22:07:40.459Z,20.33
2017-12-05T22:10:08.067Z,16.60
2017-12-05T22:12:35.648Z,19.03
2017-12-05T22:15:03.234Z,16.47
2017-12-05T22:17:30.786Z,17.57
2017-12-05T22:19:58.370Z,16.80
2017-12-05T22:22:25.993Z,19.20
2017-12-05T22:24:53.543Z,18.17
2017-12-05T22:27:21.151Z,17.43
2017-12-05T22:29:48.725Z,19.90
2017-12-05T22:32:16.285Z,23.47
2017-12-05T22:34:43.873Z,19.30
2017-12-05T22:37:13.622Z,20.93
2017-12-05T22:39:41.226Z,19.07
2017-12-05T22:42:08.865Z,18.00
2017-12-05T22:44:36.441Z,19.30
2017-12-05T22:47:04.069Z,18.90
2017-12-05T22:49:31.719Z,21.70
2017-12-05T22:51:59.285Z,18.90
2017-12-05T22:54:26.837Z,21.20
2017-12-05T22:56:54.402Z,18.53
2017-12-05T22:59:21.992Z,19.17
2017-12-05T23:01:49.630Z,17.00
2017-12-05T23:04:17.699Z,14.80
2017-12-05T23:06:45.306Z,19.63
2017-12-05T23:09:13.070Z,17.00
2017-12-05T23:11:40.672Z,17.57
2017-12-05T23:14:08.233Z,14.93
2017-12-05T23:16:35.833Z,19.27
2017-12-05T23:19:03.522Z,14.17
2017-12-05T23:21:31.113Z,15.63
2017-12-05T23:23:58.683Z,18.00
2017-12-05T23:26:26.246Z,21.17
2017-12-05T23:28:53.814Z,17.50
2017-12-05T23:31:21.404Z,15.40
2017-12-05T23:33:48.978Z,19.10
2017-12-05T23:36:16.596Z,18.43
2017-12-05T23:38:44.164Z,21.37
2017-12-05T23:41:11.746Z,17.20
2017-12-05T23:43:39.307Z,16.13
2017-12-05T23:46:06.865Z,16.73
2017-12-05T23:48:34.508Z,18.73
2017-12-05T23:51:02.061Z,18.90
2017-12-05T23:53:29.637Z,19.57
2017-12-05T23:55:57.238Z,15.87
2017-12-05T23:58:24.823Z,15.47
